Detalii statie RANDUNICA PREST ANDRID [00001984]

Toti senzorii

Date Temperatura solului [C]Precipitatii [mm]Voltaj baterie [mV]Leaf Wetness [Min]HC Air temperature [C]HC Relative humidity [%]Punctul de roua [C]
medieminmaxsumaultimatimpmedieminmaxmediemediemin
2019-08-15 20:00:00 22.8 22.8 23 0 6972 18.14 17.42 18.86 0 0 0
2019-08-15 21:00:00 22.8 22.7 22.9 0 6952 17.51 17.27 17.86 0 0 0
2019-08-15 22:00:00 22.5 22.4 22.7 0 6932 17.16 16.54 17.41 0 0 0
2019-08-15 23:00:00 22.2 22.1 22.5 0 6884 15.89 15.2 16.35 0 0 0
2019-08-16 00:00:00 22 21.9 22.3 0 6894 14.68 14.14 15.23 0 0 0
2019-08-16 01:00:00 21.7 21.6 22 0 6864 13.97 13.68 14.17 0 0 0
2019-08-16 02:00:00 21.4 21.2 21.6 0 6854 13.27 12.77 13.6 0 0 0
2019-08-16 03:00:00 21 20.8 21.3 0 6854 12.63 12.07 12.93 0 0 0
2019-08-16 04:00:00 20.8 20.6 21 0 6844 11.96 11.69 12.17 0 0 0
2019-08-16 05:00:00 20.5 20.2 20.7 0 6826 11.85 11.59 12.06 0 0 0
2019-08-16 06:00:00 20.2 20 20.4 0 6834 12.03 11.85 12.23 0 0 0
2019-08-16 07:00:00 20 19.8 20.3 0 6874 12.85 12.38 13.13 0 0 0
2019-08-16 08:00:00 19.8 19.8 19.9 0 6904 12.8 12.63 13.01 0 0 0
2019-08-16 09:00:00 19.9 19.8 20.2 0 7020 15.03 13.08 16.83 0 0 0
2019-08-16 10:00:00 20 19.9 20.4 0 7166 19.06 17.77 20.17 0 0 0
2019-08-16 11:00:00 20.5 20.2 20.8 0 7284 20.83 19.86 22.21 0 0 0
2019-08-16 12:00:00 20.9 20.8 21 0 7274 23.73 22.47 25.32 0 0 0
2019-08-16 13:00:00 21.4 21.1 21.8 0 7274 24.69 23.72 25.62 0 0 0
2019-08-16 14:00:00 22.4 21.9 23 0 7274 25.57 23.79 26.64 0 0 0
2019-08-16 15:00:00 23.5 23.1 23.9 0 7274 25.83 23.96 27.32 0 0 0
2019-08-16 16:00:00 24.3 24 24.7 0 7274 26.85 24.91 27.82 0 0 0
2019-08-16 17:00:00 25 24.7 25.4 0 7274 26.83 26.31 27.87 0 0 0
2019-08-16 18:00:00 25.4 25.3 25.5 0 7274 25.74 24.95 26.67 0 0 0
2019-08-16 19:00:00 25.3 25.1 25.5 0 7264 23.6 22.28 24.72 0 0 0
2019-08-16 20:00:00 25 24.9 25.3 0 6982 19.3 17.49 21.78 0 0 0
2019-08-16 21:00:00 24.6 24.3 24.9 0 6962 17.9 17.56 18.32 0 0 0
2019-08-16 22:00:00 24 23.9 24.3 0 6922 16.11 14.91 17.56 0 0 0
2019-08-16 23:00:00 23.5 23.3 23.8 0 6884 15.57 14.83 16.04 0 0 0
2019-08-17 00:00:00 23 22.8 23.2 0 6854 15.05 14.87 15.63 0 0 0
2019-08-17 01:00:00 22.6 22.5 22.9 0 6864 14.64 13.97 15.07 0 0 0
2019-08-17 02:00:00 22.2 22 22.5 0 6864 13.92 13.65 14.21 0 0 0
2019-08-17 03:00:00 21.8 21.8 22 0 6854 13.47 12.9 13.97 0 0 0
2019-08-17 04:00:00 21.5 21.3 21.8 0 6834 13.21 12.94 13.86 0 0 0
2019-08-17 05:00:00 21.2 21.1 21.5 0 6826 12.86 11.73 13.54 0 0 0
2019-08-17 06:00:00 21 20.9 21.2 0 6834 11.83 11.6 12.07 0 0 0
2019-08-17 07:00:00 20.7 20.6 20.9 0 6864 13 11.72 14.71 0 0 0
2019-08-17 08:00:00 20.5 20.3 20.8 0 6922 15.29 14.84 15.71 0 0 0
2019-08-17 09:00:00 20.5 20.1 20.8 0 7206 17.11 15.89 18.96 0 0 0
2019-08-17 10:00:00 20.6 20.2 20.8 0 7274 20.5 19.04 21.8 0 0 0
2019-08-17 11:00:00 21 20.8 21.3 0 7284 22.05 21.37 23.19 0 0 0
2019-08-17 12:00:00 21.4 21.3 21.8 0 7274 25.28 23.3 26.01 0 0 0
2019-08-17 13:00:00 22.1 21.7 22.5 0 7264 26.95 25.96 27.44 0 0 0
2019-08-17 14:00:00 23.2 22.6 23.8 0 7264 27.36 24.78 28.89 0 0 0
2019-08-17 15:00:00 24.4 23.8 25.1 0 7264 27.57 26.29 28.67 0 0 0
2019-08-17 16:00:00 25.4 25 25.9 0 7264 28.78 27.91 29.51 0 0 0
2019-08-17 17:00:00 26.1 25.8 26.5 0 7264 28.08 27.46 29.34 0 0 0
2019-08-17 18:00:00 26.4 26.4 26.6 0 7264 27.01 25.54 28.55 0 0 0
2019-08-17 19:00:00 26.3 26.3 26.5 0 7088 24.96 22.74 27.02 0 0 0